createdAt,value
2019-04-12T00:02:13.082Z,64.56
2019-04-12T00:05:20.148Z,65.44
2019-04-12T00:08:30.706Z,64.84
2019-04-12T00:11:37.344Z,65.58
2019-04-12T00:14:45.367Z,65.46
2019-04-12T00:17:54.715Z,66.26
2019-04-12T00:21:01.733Z,65.59
2019-04-12T00:24:08.601Z,65.87
2019-04-12T00:27:16.742Z,67.53
2019-04-12T00:30:24.742Z,68.08
2019-04-12T00:33:34.041Z,67.49
2019-04-12T00:36:42.281Z,68.81
2019-04-12T00:39:49.366Z,68.84
2019-04-12T00:42:56.691Z,69.03
2019-04-12T00:46:06.048Z,69.70
2019-04-12T00:49:12.254Z,71.02
2019-04-12T00:52:19.269Z,69.69
2019-04-12T00:55:26.271Z,70.60
2019-04-12T00:58:33.297Z,72.66
2019-04-12T01:01:51.252Z,74.03
2019-04-12T01:05:00.678Z,71.88
2019-04-12T01:08:10.111Z,71.87
2019-04-12T01:11:17.389Z,73.80
2019-04-12T01:14:27.584Z,73.08
2019-04-12T01:17:33.079Z,71.44
2019-04-12T01:20:41.148Z,70.54
2019-04-12T01:23:50.352Z,76.53
2019-04-12T01:26:57.366Z,74.98
2019-04-12T01:30:05.377Z,73.18
2019-04-12T01:33:14.818Z,76.27
2019-04-12T01:36:21.119Z,75.82
2019-04-12T01:39:29.242Z,74.29
2019-04-12T01:42:36.227Z,75.50
2019-04-12T01:45:43.090Z,74.48
2019-04-12T01:48:50.295Z,74.15
2019-04-12T01:51:59.335Z,71.82
2019-04-12T01:55:09.308Z,73.24
2019-04-12T01:58:15.013Z,73.67
2019-04-12T02:01:22.054Z,72.46
2019-04-12T02:04:28.993Z,71.48
2019-04-12T02:07:36.121Z,72.41
2019-04-12T02:10:43.155Z,70.82
2019-04-12T02:13:50.409Z,70.97
2019-04-12T02:16:57.464Z,68.99
2019-04-12T02:20:05.013Z,71.44
2019-04-12T02:23:12.039Z,71.66
2019-04-12T02:26:19.148Z,71.75
2019-04-12T02:29:26.222Z,73.06
2019-04-12T02:32:49.822Z,73.86
2019-04-12T02:36:01.100Z,73.91
2019-04-12T02:39:09.098Z,72.78
2019-04-12T02:42:17.980Z,73.05
2019-04-12T02:45:25.521Z,71.38
2019-04-12T02:48:53.626Z,72.79
2019-04-12T02:52:15.498Z,73.89
2019-04-12T02:55:38.546Z,75.75
2019-04-12T02:58:50.673Z,75.38
2019-04-12T03:02:00.939Z,74.48
2019-04-12T03:05:08.231Z,74.85
2019-04-12T03:08:15.787Z,72.22
2019-04-12T03:11:25.627Z,74.57
2019-04-12T03:14:34.904Z,73.34
2019-04-12T03:17:43.050Z,75.01
2019-04-12T03:20:51.487Z,72.20
2019-04-12T03:23:58.862Z,74.82
2019-04-12T03:27:06.242Z,75.56
2019-04-12T03:30:13.591Z,75.10
2019-04-12T03:33:20.738Z,75.87
2019-04-12T03:36:31.222Z,74.56
2019-04-12T03:39:39.536Z,75.69
2019-04-12T03:42:51.253Z,75.46
2019-04-12T03:45:58.401Z,73.35
2019-04-12T03:49:05.623Z,77.11
2019-04-12T03:52:12.567Z,75.94
2019-04-12T03:55:23.275Z,76.12
2019-04-12T03:58:30.525Z,75.02
2019-04-12T04:01:37.638Z,74.94
2019-04-12T04:04:45.684Z,73.22
2019-04-12T04:07:53.740Z,76.03
2019-04-12T04:11:01.127Z,76.22
2019-04-12T04:14:08.264Z,76.28
2019-04-12T04:17:32.797Z,75.83
2019-04-12T04:20:54.681Z,75.28
2019-04-12T04:24:14.747Z,74.21
2019-04-12T04:27:56.530Z,76.32
2019-04-12T04:31:09.759Z,73.10
2019-04-12T04:34:16.956Z,76.21
2019-04-12T04:37:24.371Z,74.74
2019-04-12T04:40:31.366Z,73.05
2019-04-12T04:43:38.786Z,72.12
2019-04-12T04:46:45.735Z,71.83
2019-04-12T04:49:53.922Z,72.95
2019-04-12T04:53:01.137Z,72.88
2019-04-12T04:56:08.011Z,71.33
2019-04-12T04:59:15.421Z,72.24
2019-04-12T05:02:22.675Z,71.95
2019-04-12T05:05:30.085Z,73.25
2019-04-12T05:08:37.366Z,72.68
2019-04-12T05:11:46.604Z,71.79
2019-04-12T05:14:56.706Z,72.30
2019-04-12T05:18:02.783Z,73.10
2019-04-12T05:21:09.727Z,75.27
2019-04-12T05:24:19.833Z,73.96
2019-04-12T05:27:27.080Z,73.91
2019-04-12T05:30:35.504Z,75.16
2019-04-12T05:33:42.638Z,74.13
2019-04-12T05:36:49.667Z,75.43
2019-04-12T05:39:58.943Z,74.70
2019-04-12T05:43:05.918Z,75.91
2019-04-12T05:46:25.882Z,75.24
2019-04-12T05:50:12.835Z,74.05
2019-04-12T05:53:19.870Z,75.70
2019-04-12T05:56:27.003Z,74.27
2019-04-12T05:59:36.811Z,74.24
2019-04-12T06:02:45.086Z,75.22
2019-04-12T06:05:52.112Z,73.70
2019-04-12T06:08:59.141Z,74.77
2019-04-12T06:12:06.584Z,74.50
2019-04-12T06:15:13.841Z,74.48
2019-04-12T06:18:21.180Z,75.68
2019-04-12T06:21:53.170Z,75.49
2019-04-12T06:25:21.299Z,73.49
2019-04-12T06:28:28.473Z,71.72
2019-04-12T06:31:35.518Z,71.83
2019-04-12T06:34:45.838Z,71.73
2019-04-12T06:37:54.067Z,71.94
2019-04-12T06:41:01.335Z,71.71
2019-04-12T06:44:08.574Z,71.16
2019-04-12T06:47:16.018Z,70.79
2019-04-12T06:50:28.926Z,71.78
2019-04-12T06:53:36.030Z,71.23
2019-04-12T06:56:48.005Z,70.62
2019-04-12T07:00:27.142Z,70.95
2019-04-12T07:03:38.822Z,71.88
2019-04-12T07:06:45.983Z,71.14
2019-04-12T07:09:58.271Z,70.60
2019-04-12T07:13:05.341Z,70.65
2019-04-12T07:16:12.499Z,70.14
2019-04-12T07:19:19.546Z,70.24
2019-04-12T07:22:26.604Z,69.74
2019-04-12T07:28:40.114Z,69.60
2019-04-12T07:31:47.188Z,68.78
2019-04-12T07:34:54.622Z,69.51
2019-04-12T07:38:01.620Z,68.90
2019-04-12T07:41:08.756Z,67.60
2019-04-12T07:44:17.429Z,68.10
2019-04-12T07:47:25.660Z,68.51
2019-04-12T07:50:39.919Z,67.52
2019-04-12T07:54:13.337Z,66.00
2019-04-12T07:57:47.158Z,67.14
2019-04-12T08:01:15.572Z,64.94
2019-04-12T08:04:41.532Z,65.79
2019-04-12T08:07:51.239Z,65.37
2019-04-12T08:11:01.364Z,65.42
2019-04-12T08:14:08.369Z,64.60
2019-04-12T08:17:15.592Z,64.59
2019-04-12T08:20:22.771Z,64.54
2019-04-12T08:23:29.834Z,63.73
2019-04-12T08:26:36.852Z,63.33
2019-04-12T08:29:43.949Z,62.32
2019-04-12T08:32:52.500Z,63.20
2019-04-12T08:36:01.299Z,63.82
2019-04-12T08:39:09.630Z,62.97
2019-04-12T08:42:16.541Z,63.43
2019-04-12T08:45:23.490Z,63.74
2019-04-12T08:48:30.855Z,63.56
2019-04-12T08:51:37.933Z,65.35
2019-04-12T08:54:46.852Z,65.31
2019-04-12T08:57:57.021Z,66.30
2019-04-12T09:01:03.994Z,66.27
2019-04-12T09:04:11.000Z,66.56
2019-04-12T09:07:18.188Z,66.12
2019-04-12T09:10:25.249Z,65.88
2019-04-12T09:13:32.564Z,66.15
2019-04-12T09:16:39.734Z,65.56
2019-04-12T09:20:14.541Z,64.86
2019-04-12T09:23:59.040Z,65.06
2019-04-12T09:27:06.155Z,64.58
2019-04-12T09:30:13.251Z,65.42
2019-04-12T09:33:20.321Z,64.57
2019-04-12T09:36:27.324Z,67.44
2019-04-12T09:39:37.918Z,66.71
2019-04-12T09:42:46.191Z,66.69
2019-04-12T09:45:53.149Z,67.42
2019-04-12T09:49:02.455Z,68.10
2019-04-12T09:52:09.390Z,67.73
2019-04-12T09:55:16.422Z,67.21
2019-04-12T09:58:23.389Z,67.10
2019-04-12T10:01:32.383Z,66.85
2019-04-12T10:04:39.218Z,66.43
2019-04-12T10:07:51.038Z,66.90
2019-04-12T10:10:58.201Z,66.52
2019-04-12T10:14:07.356Z,66.27
2019-04-12T10:17:14.296Z,66.06
2019-04-12T10:20:24.386Z,65.65
2019-04-12T10:23:31.409Z,65.22
2019-04-12T10:26:38.490Z,65.84
2019-04-12T10:29:48.092Z,66.26
2019-04-12T10:32:55.329Z,66.75
2019-04-12T10:36:02.414Z,67.14
2019-04-12T10:56:53.100Z,64.68
2019-04-12T11:00:08.142Z,64.74
2019-04-12T11:03:17.384Z,66.17
2019-04-12T11:06:30.141Z,64.89
2019-04-12T11:09:32.448Z,64.14
2019-04-12T11:12:38.847Z,64.99
2019-04-12T11:15:45.358Z,65.86
2019-04-12T11:18:52.926Z,64.72
2019-04-12T11:21:59.484Z,65.31
2019-04-12T11:25:06.513Z,64.89
2019-04-12T11:28:13.294Z,62.31
2019-04-12T11:31:19.784Z,63.71
2019-04-12T11:34:26.358Z,64.14
2019-04-12T11:37:32.896Z,62.77
2019-04-12T11:40:40.512Z,62.22
2019-04-12T11:43:47.073Z,62.96
2019-04-12T11:46:53.533Z,63.47
2019-04-12T11:50:01.098Z,62.51
2019-04-12T11:53:09.103Z,62.94
2019-04-12T11:56:15.676Z,62.76
2019-04-12T11:59:29.598Z,61.93
2019-04-12T12:02:59.447Z,61.35
2019-04-12T12:06:25.627Z,62.63
2019-04-12T12:09:41.685Z,62.46
2019-04-12T12:13:04.132Z,62.29
2019-04-12T12:16:25.760Z,62.22
2019-04-12T12:19:32.279Z,62.18
2019-04-12T12:22:38.722Z,62.53
2019-04-12T12:25:45.251Z,62.35
2019-04-12T12:28:51.798Z,62.60
2019-04-12T12:31:58.321Z,62.29
2019-04-12T12:35:07.631Z,60.45
2019-04-12T12:38:14.209Z,60.03
2019-04-12T12:41:20.917Z,61.41
2019-04-12T12:44:27.491Z,61.58
2019-04-12T12:47:34.063Z,59.61
2019-04-12T12:50:40.974Z,60.13
2019-04-12T12:53:47.537Z,60.50
2019-04-12T12:56:54.001Z,60.57
2019-04-12T13:00:00.405Z,60.98
2019-04-12T13:03:07.752Z,61.68
2019-04-12T13:06:19.501Z,62.91
2019-04-12T13:09:26.084Z,62.10
2019-04-12T13:12:32.565Z,63.54
2019-04-12T13:15:39.104Z,63.14
2019-04-12T13:18:47.033Z,62.86
2019-04-12T13:21:53.666Z,62.67
2019-04-12T13:25:00.165Z,63.68
2019-04-12T13:28:08.698Z,62.87
2019-04-12T13:31:35.155Z,62.21
2019-04-12T13:34:49.629Z,62.57
2019-04-12T13:38:07.275Z,61.74
2019-04-12T13:41:13.959Z,62.76
2019-04-12T13:44:22.956Z,62.55
2019-04-12T13:47:28.932Z,62.92
2019-04-12T13:50:35.418Z,62.62
2019-04-12T13:53:48.167Z,62.53
2019-04-12T13:56:53.823Z,63.15
2019-04-12T14:00:00.362Z,64.12
2019-04-12T14:03:13.153Z,63.60
2019-04-12T14:06:20.777Z,63.97
2019-04-12T14:09:27.198Z,64.66
2019-04-12T14:12:37.811Z,63.98
2019-04-12T14:15:45.806Z,64.06
2019-04-12T14:18:52.322Z,63.92
2019-04-12T14:21:58.772Z,64.62
2019-04-12T14:25:08.572Z,64.10
2019-04-12T14:28:29.319Z,64.91
2019-04-12T14:31:30.369Z,64.30
2019-04-12T14:34:48.622Z,64.35
2019-04-12T14:37:58.539Z,64.31
2019-04-12T14:41:06.406Z,63.37
2019-04-12T14:44:23.779Z,63.78
2019-04-12T14:47:39.534Z,64.11
2019-04-12T14:50:47.388Z,63.44
2019-04-12T14:53:56.683Z,64.74
2019-04-12T14:57:09.585Z,64.29
2019-04-12T15:00:19.641Z,63.91
2019-04-12T15:03:26.434Z,64.91
2019-04-12T15:06:37.845Z,63.65
2019-04-12T15:09:46.659Z,64.18
2019-04-12T15:12:53.189Z,64.12
2019-04-12T15:15:59.755Z,63.81
2019-04-12T15:19:09.468Z,64.13
2019-04-12T15:22:18.815Z,63.31
2019-04-12T15:25:25.509Z,64.04
2019-04-12T15:28:32.020Z,63.89
2019-04-12T15:31:38.472Z,63.83
2019-04-12T15:34:45.237Z,62.69
2019-04-12T15:37:54.056Z,63.28
2019-04-12T15:41:00.264Z,63.48
2019-04-12T15:44:07.013Z,63.58
2019-04-12T15:47:13.563Z,63.39
2019-04-12T15:50:20.119Z,63.65
2019-04-12T15:53:26.578Z,63.09
2019-04-12T15:56:33.009Z,63.39
2019-04-12T15:59:39.766Z,63.07
2019-04-12T16:02:46.435Z,62.73
2019-04-12T16:05:53.476Z,62.87
2019-04-12T16:09:22.588Z,62.44
2019-04-12T16:13:10.367Z,63.03
2019-04-12T16:16:53.678Z,62.88
2019-04-12T16:20:02.061Z,62.25
2019-04-12T16:23:09.512Z,63.00
2019-04-12T16:26:17.812Z,62.16
2019-04-12T16:29:49.110Z,62.32
2019-04-12T16:33:08.608Z,63.60
2019-04-12T16:36:27.031Z,63.38
2019-04-12T16:39:33.627Z,63.68
2019-04-12T16:42:40.356Z,63.10
2019-04-12T16:45:47.012Z,63.23
2019-04-12T16:48:53.458Z,63.52
2019-04-12T16:52:02.111Z,63.44
2019-04-12T16:55:09.124Z,64.41
2019-04-12T16:58:15.886Z,64.20
2019-04-12T17:01:35.732Z,63.36
2019-04-12T17:04:30.814Z,64.80
2019-04-12T17:07:37.385Z,63.68
2019-04-12T17:10:44.526Z,64.20
2019-04-12T17:13:51.117Z,64.10
2019-04-12T17:16:57.728Z,63.85
2019-04-12T17:20:07.806Z,64.20
2019-04-12T17:23:15.331Z,64.67
2019-04-12T17:26:21.983Z,64.79
2019-04-12T17:29:28.620Z,65.34
2019-04-12T17:32:35.227Z,64.81
2019-04-12T17:35:41.986Z,65.31
2019-04-12T17:38:48.530Z,65.55
2019-04-12T17:41:55.203Z,65.29
2019-04-12T17:45:04.559Z,65.00
2019-04-12T17:48:12.512Z,64.76
2019-04-12T17:51:25.047Z,64.78
2019-04-12T17:55:10.673Z,65.13
2019-04-12T17:58:16.602Z,65.02
2019-04-12T18:01:31.620Z,65.21
2019-04-12T18:04:38.231Z,65.19
2019-04-12T18:07:45.075Z,65.46
2019-04-12T18:10:52.316Z,65.43
2019-04-12T18:13:58.948Z,65.52
2019-04-12T18:17:05.653Z,64.89
2019-04-12T18:20:14.507Z,65.47
2019-04-12T18:23:21.540Z,65.50
2019-04-12T18:26:28.252Z,65.25
2019-04-12T18:29:34.742Z,66.00
2019-04-12T18:32:41.211Z,66.08
2019-04-12T18:35:47.791Z,65.97
2019-04-12T18:38:54.406Z,66.11
2019-04-12T18:42:00.902Z,66.45
2019-04-12T18:45:09.231Z,66.43
2019-04-12T18:48:16.919Z,67.00
2019-04-12T18:51:25.507Z,67.34
2019-04-12T18:54:31.996Z,66.94
2019-04-12T18:57:38.649Z,67.75
2019-04-12T19:00:45.246Z,67.53
2019-04-12T19:03:51.775Z,67.35
2019-04-12T19:06:58.445Z,67.63
2019-04-12T19:10:05.958Z,67.87
2019-04-12T19:13:13.372Z,68.20
2019-04-12T19:16:20.287Z,68.17
2019-04-12T19:19:26.790Z,69.03
2019-04-12T19:22:33.291Z,69.60
2019-04-12T19:25:40.951Z,69.18
2019-04-12T19:28:47.480Z,69.57
2019-04-12T19:32:02.231Z,70.67
2019-04-12T19:35:21.261Z,70.26
2019-04-12T19:38:38.999Z,70.20
2019-04-12T19:41:45.840Z,70.98
2019-04-12T19:44:53.595Z,70.12
2019-04-12T19:48:00.014Z,70.90
2019-04-12T19:51:09.288Z,70.46
2019-04-12T19:54:17.657Z,70.64
2019-04-12T19:57:24.187Z,71.21
2019-04-12T20:00:30.744Z,70.97
2019-04-12T20:03:37.360Z,71.22
2019-04-12T20:06:43.836Z,72.03
2019-04-12T20:09:50.333Z,71.73
2019-04-12T20:12:57.932Z,73.32
2019-04-12T20:16:04.839Z,73.31
2019-04-12T20:19:11.882Z,72.92
2019-04-12T20:22:20.906Z,73.65
2019-04-12T20:25:27.454Z,72.03
2019-04-12T20:28:34.515Z,71.97
2019-04-12T20:31:43.082Z,73.75
2019-04-12T20:34:49.596Z,73.12
2019-04-12T20:37:56.140Z,72.67
2019-04-12T20:41:02.617Z,72.61
2019-04-12T20:44:09.249Z,72.31
2019-04-12T20:47:15.734Z,73.23
2019-04-12T20:50:22.197Z,73.56
2019-04-12T20:53:28.874Z,75.35
2019-04-12T20:56:35.427Z,74.56
2019-04-12T20:59:41.860Z,72.83
2019-04-12T21:02:48.411Z,73.02
2019-04-12T21:05:56.464Z,73.12
2019-04-12T21:09:02.930Z,72.58
2019-04-12T21:12:13.568Z,72.89
2019-04-12T21:15:20.072Z,73.60
2019-04-12T21:18:26.719Z,73.95
2019-04-12T21:21:33.484Z,73.53
2019-04-12T21:24:39.968Z,74.26
2019-04-12T21:27:46.752Z,74.17
2019-04-12T21:30:53.309Z,73.90
2019-04-12T21:33:59.857Z,74.08
2019-04-12T21:37:08.640Z,74.95
2019-04-12T21:40:16.671Z,76.20
2019-04-12T21:43:23.115Z,75.34
2019-04-12T21:46:29.614Z,75.72
2019-04-12T21:49:36.087Z,76.79
2019-04-12T21:52:42.635Z,76.99
2019-04-12T21:55:50.027Z,75.23
2019-04-12T21:58:56.608Z,75.27
2019-04-12T22:02:03.615Z,75.20
2019-04-12T22:05:13.237Z,77.17
2019-04-12T22:08:19.842Z,75.29
2019-04-12T22:11:26.397Z,74.70
2019-04-12T22:14:32.878Z,76.06
2019-04-12T22:17:41.215Z,74.99
2019-04-12T22:20:48.247Z,74.53
2019-04-12T22:23:54.987Z,79.41
2019-04-12T22:27:01.494Z,77.90
2019-04-12T22:30:11.311Z,76.30
2019-04-12T22:33:17.750Z,77.10
2019-04-12T22:36:24.336Z,77.61
2019-04-12T22:39:34.696Z,78.09
2019-04-12T22:42:41.204Z,78.79
2019-04-12T22:45:47.721Z,77.95
2019-04-12T22:48:54.329Z,79.98
2019-04-12T22:52:01.889Z,79.69
2019-04-12T22:55:11.311Z,78.64
2019-04-12T22:58:17.834Z,80.34
2019-04-12T23:01:25.346Z,80.95
2019-04-12T23:04:34.228Z,81.23
2019-04-12T23:07:43.859Z,82.78
2019-04-12T23:10:50.383Z,83.93
2019-04-12T23:13:56.855Z,82.76
2019-04-12T23:17:06.116Z,83.37
2019-04-12T23:20:12.897Z,83.74
2019-04-12T23:23:19.659Z,83.50
2019-04-12T23:26:26.201Z,81.27
2019-04-12T23:29:33.799Z,80.32
2019-04-12T23:32:40.446Z,80.45
2019-04-12T23:35:47.925Z,80.15
2019-04-12T23:38:54.480Z,81.22
2019-04-12T23:42:03.250Z,85.63
2019-04-12T23:45:15.730Z,85.77
2019-04-12T23:48:22.327Z,85.03
2019-04-12T23:51:28.942Z,85.95
2019-04-12T23:54:35.466Z,85.77
2019-04-12T23:57:42.094Z,85.07
